Time;durP1;ratioP1;P1;durP2;ratioP2;P2;SDS_P1;SDS_P2;PMS_P1;PMS_P2;Temp;Humidity;BMP_temperature;BMP_pressure;BME280_temperature;BME280_humidity;BME280_pressure;Samples;Min_cycle;Max_cycle;Signal;HPM_P1;HPM_P2
2022/10/03 00:01:04;;;;;;;;;10.00;8.50;;;;;15.66;69.50;101918.00;4896930;29;45656;-81
2022/10/03 00:03:42;;;;;;;;;8.75;7.00;;;;;15.66;69.40;101915.34;4897054;29;46113;-80
2022/10/03 00:06:25;;;;;;;;;10.25;8.50;;;;;15.65;69.18;101913.69;4897444;29;45674;-79
2022/10/03 00:12:35;;;;;;;;;8.00;8.00;;;;;15.64;69.48;101924.34;4896399;29;45733;-79
2022/10/03 00:15:43;;;;;;;;;19.25;17.50;;;;;15.62;69.42;101921.81;4819838;29;46267;-79
2022/10/03 00:18:28;;;;;;;;;17.00;15.50;;;;;15.63;69.36;101930.59;4820181;29;45709;-78
2022/10/03 00:21:23;;;;;;;;;14.00;12.75;;;;;15.64;69.42;101934.94;4819917;29;45803;-78
2022/10/03 00:31:04;;;;;;;;;10.25;9.00;;;;;15.62;69.36;101929.75;4819172;29;45679;-78
2022/10/03 00:33:38;;;;;;;;;9.25;9.00;;;;;15.62;69.44;101927.09;4819936;29;46607;-80
2022/10/03 00:36:12;;;;;;;;;7.50;7.50;;;;;15.59;69.57;101922.03;4823298;29;45714;-78
2022/10/03 00:38:59;;;;;;;;;7.25;7.00;;;;;15.61;69.46;101929.84;4823026;29;45677;-79
2022/10/03 00:42:01;;;;;;;;;11.00;9.25;;;;;15.61;69.68;101930.69;4823108;29;45776;-79
2022/10/03 00:44:48;;;;;;;;;8.00;7.75;;;;;15.60;69.61;101936.09;4823351;29;45948;-80
2022/10/03 00:47:37;;;;;;;;;10.00;9.25;;;;;15.59;69.46;101937.91;4822952;29;46313;-79
2022/10/03 00:50:11;;;;;;;;;13.50;11.00;;;;;15.59;69.68;101931.78;4822469;29;46187;-79
2022/10/03 00:53:12;;;;;;;;;8.00;7.00;;;;;15.59;69.41;101934.41;4876455;29;45737;-79
2022/10/03 00:59:33;;;;;;;;;7.00;6.00;;;;;15.57;69.54;101923.94;4822073;29;45648;-78
2022/10/03 01:02:24;;;;;;;;;8.00;7.00;;;;;15.55;69.54;101930.31;4822918;29;46073;-78
2022/10/03 01:05:08;;;;;;;;;8.50;7.25;;;;;15.55;69.64;101935.59;4822900;29;45934;-79
2022/10/03 01:07:42;;;;;;;;;6.00;5.00;;;;;15.53;69.57;101930.41;4822811;29;45721;-79
2022/10/03 01:10:16;;;;;;;;;7.00;5.50;;;;;15.55;69.73;101932.94;4822226;29;46908;-78
2022/10/03 01:13:00;;;;;;;;;6.25;5.75;;;;;15.52;69.50;101931.34;4822066;29;46402;-80
2022/10/03 01:15:26;;;;;;;;;7.00;6.50;;;;;15.55;69.50;101930.31;4822797;29;46041;-79
2022/10/03 01:18:20;;;;;;;;;8.00;7.25;;;;;15.56;69.45;101924.88;4822688;29;45868;-77
2022/10/03 01:20:49;;;;;;;;;9.00;9.00;;;;;15.56;69.51;101924.88;4767590;29;45670;-79
2022/10/03 01:23:44;;;;;;;;;8.50;6.25;;;;;15.53;69.58;101928.59;4767955;29;46542;-79
2022/10/03 01:26:44;;;;;;;;;11.25;7.50;;;;;15.57;69.75;101934.50;4767904;29;45740;-78
2022/10/03 01:32:03;;;;;;;;;11.25;7.25;;;;;15.56;69.86;101934.59;4783488;29;45744;-79
2022/10/03 01:34:31;;;;;;;;;7.50;6.00;;;;;15.53;69.79;101931.25;4822221;29;45829;-78
2022/10/03 01:37:07;;;;;;;;;8.75;7.50;;;;;15.52;69.74;101932.19;4822179;29;45730;-79
2022/10/03 01:42:49;;;;;;;;;6.75;6.25;;;;;15.49;69.67;101928.91;4822127;29;45975;-79
2022/10/03 01:45:46;;;;;;;;;7.75;7.00;;;;;15.48;69.85;101920.13;4821936;29;45531;-78
2022/10/03 01:48:20;;;;;;;;;5.00;4.00;;;;;15.47;69.78;101923.72;4822355;29;45651;-78
2022/10/03 01:51:02;;;;;;;;;7.00;6.00;;;;;15.44;69.33;101918.63;4822144;29;45676;-78
2022/10/03 01:53:44;;;;;;;;;6.00;5.00;;;;;15.45;69.69;101919.47;4821580;29;47819;-78
2022/10/03 01:59:42;;;;;;;;;7.25;6.25;;;;;15.42;69.83;101922.34;4898461;29;45692;-78
2022/10/03 02:02:33;;;;;;;;;7.00;5.00;;;;;15.41;69.70;101915.38;4899092;29;45639;-78
2022/10/03 02:05:18;;;;;;;;;5.75;5.75;;;;;15.37;69.56;101914.75;4898841;29;45572;-78
2022/10/03 02:08:04;;;;;;;;;6.50;6.00;;;;;15.36;69.81;101920.13;4897476;29;47451;-78
2022/10/03 02:10:59;;;;;;;;;7.25;7.00;;;;;15.34;69.66;101912.31;4898214;29;45575;-78
2022/10/03 02:13:36;;;;;;;;;10.25;6.25;;;;;15.33;69.85;101918.53;4898575;29;45812;-78
2022/10/03 02:16:10;;;;;;;;;5.00;5.00;;;;;15.32;69.96;101916.88;4881519;29;47988;-79
2022/10/03 02:18:45;;;;;;;;;7.75;6.00;;;;;15.28;70.01;101912.75;4881040;29;47246;-78
2022/10/03 02:21:33;;;;;;;;;5.00;5.00;;;;;15.29;70.06;101909.16;4898877;29;45736;-78
2022/10/03 02:24:20;;;;;;;;;6.50;6.00;;;;;15.28;69.91;101910.09;4898756;29;45813;-78
2022/10/03 02:27:14;;;;;;;;;6.50;6.00;;;;;15.26;70.06;101917.31;4898470;29;45640;-79
2022/10/03 02:30:13;;;;;;;;;5.25;5.25;;;;;15.26;70.18;101916.47;4898114;29;45714;-79
2022/10/03 02:32:51;;;;;;;;;7.00;6.00;;;;;15.25;70.22;101906.84;4898442;29;45695;-78
2022/10/03 02:35:54;;;;;;;;;8.25;7.75;;;;;15.23;70.02;101912.22;4898676;29;45736;-78
2022/10/03 02:38:41;;;;;;;;;7.50;6.25;;;;;15.24;70.16;101911.28;4898089;29;45492;-78
2022/10/03 02:44:40;;;;;;;;;7.75;5.75;;;;;15.22;70.35;101915.84;4897825;29;45753;-79
2022/10/03 02:47:33;;;;;;;;;5.75;5.50;;;;;15.20;70.04;101912.44;4898286;29;45710;-79
2022/10/03 02:50:36;;;;;;;;;6.75;6.00;;;;;15.21;70.34;101915.94;4897828;29;46444;-78
2022/10/03 02:53:32;;;;;;;;;7.00;6.75;;;;;15.21;70.29;101921.22;4897706;29;46078;-79
2022/10/03 02:56:34;;;;;;;;;6.75;6.00;;;;;15.20;70.18;101917.72;4898095;29;45893;-79
2022/10/03 02:59:37;;;;;;;;;8.00;6.50;;;;;15.22;70.14;101912.34;4897978;29;45829;-79
2022/10/03 03:02:31;;;;;;;;;4.00;4.00;;;;;15.20;70.09;101912.44;4898151;29;46568;-80
2022/10/03 03:05:11;;;;;;;;;5.75;5.25;;;;;15.20;70.46;101907.16;4820671;29;45475;-78
2022/10/03 03:07:50;;;;;;;;;5.75;5.00;;;;;15.20;70.05;101908.97;4821075;29;45772;-78
2022/10/03 03:14:10;;;;;;;;;9.25;8.00;;;;;15.18;70.33;101914.34;4766080;29;45735;-78
2022/10/03 03:16:39;;;;;;;;;6.00;6.00;;;;;15.18;70.14;101909.06;4766276;29;46178;-79
2022/10/03 03:19:34;;;;;;;;;8.00;6.75;;;;;15.18;70.58;101916.13;4765952;29;45734;-78
2022/10/03 03:22:11;;;;;;;;;9.25;7.75;;;;;15.17;70.23;101920.56;4766443;29;45769;-78
2022/10/03 03:24:48;;;;;;;;;7.00;5.75;;;;;15.14;70.57;101910.22;4766200;29;45736;-78
2022/10/03 03:30:50;;;;;;;;;6.00;5.75;;;;;15.17;70.45;101911.81;4765370;29;45840;-79
2022/10/03 03:33:22;;;;;;;;;12.00;11.00;;;;;15.13;70.29;101909.38;4766414;29;45775;-79
2022/10/03 03:36:13;;;;;;;;;13.50;11.25;;;;;15.15;70.24;101906.66;4766013;29;45563;-78
2022/10/03 03:38:48;;;;;;;;;13.00;11.00;;;;;15.17;70.70;101910.00;4765613;29;46367;-80
2022/10/03 03:44:44;;;;;;;;;12.25;11.00;;;;;15.16;70.66;101907.50;4820547;29;45686;-79
2022/10/03 03:47:46;;;;;;;;;10.50;7.50;;;;;15.16;70.71;101908.34;4820475;29;45629;-80
2022/10/03 03:50:30;;;;;;;;;13.50;11.50;;;;;15.14;70.66;101902.31;4858181;29;46138;-80
2022/10/03 03:53:19;;;;;;;;;12.25;10.50;;;;;15.15;70.66;101908.44;4878704;29;45730;-80
2022/10/03 03:55:52;;;;;;;;;12.50;12.00;;;;;15.17;70.50;101903.91;4878445;29;45549;-79
2022/10/03 04:01:48;;;;;;;;;14.25;12.75;;;;;15.18;70.41;101913.50;4877879;29;45808;-79
2022/10/03 04:04:44;;;;;;;;;14.00;11.75;;;;;15.19;70.50;101902.00;4878165;29;45635;-79
2022/10/03 04:07:28;;;;;;;;;13.50;12.50;;;;;15.20;70.72;101911.59;4878459;29;45893;-79
2022/10/03 04:10:05;;;;;;;;;14.00;13.25;;;;;15.20;70.98;101908.97;4876662;29;45694;-79
2022/10/03 04:13:00;;;;;;;;;12.50;11.25;;;;;15.20;70.62;101911.59;4877525;29;46097;-80
2022/10/03 04:15:54;;;;;;;;;13.00;12.00;;;;;15.17;70.38;101902.09;4878078;29;45828;-78
2022/10/03 04:18:59;;;;;;;;;14.00;13.75;;;;;15.18;70.87;101914.34;4877214;29;46119;-79
2022/10/03 04:21:54;;;;;;;;;14.50;13.75;;;;;15.18;70.88;101911.69;4877993;29;46499;-79
2022/10/03 04:24:29;;;;;;;;;15.00;14.00;;;;;15.20;71.20;101914.25;4877750;29;46342;-79
2022/10/03 04:30:36;;;;;;;;;16.50;14.00;;;;;15.16;71.05;101918.91;4877497;29;45658;-79
2022/10/03 04:33:05;;;;;;;;;20.25;14.00;;;;;15.15;71.17;101922.50;4877734;29;45467;-79
2022/10/03 04:36:08;;;;;;;;;13.00;13.00;;;;;15.12;70.94;101915.59;4877637;29;46626;-79
2022/10/03 04:38:58;;;;;;;;;15.00;14.00;;;;;15.09;71.14;101910.56;4877569;29;45886;-79
2022/10/03 04:41:39;;;;;;;;;15.50;15.00;;;;;15.10;71.24;101914.88;4877875;29;45566;-79
2022/10/03 04:44:14;;;;;;;;;19.50;17.25;;;;;15.11;71.08;101913.09;4877580;29;45666;-79
2022/10/03 04:46:56;;;;;;;;;17.00;15.75;;;;;15.07;71.32;101916.88;4877722;29;46580;-79
2022/10/03 04:49:43;;;;;;;;;19.75;16.25;;;;;15.08;71.02;101918.56;4877311;29;45733;-83
2022/10/03 04:52:16;;;;;;;;;19.75;18.50;;;;;15.11;71.19;101924.47;4889548;29;45856;-80
2022/10/03 04:54:49;;;;;;;;;16.25;16.00;;;;;15.12;71.37;101917.41;4896348;29;46521;-80
2022/10/03 04:57:24;;;;;;;;;13.00;12.25;;;;;15.10;70.92;101919.31;4879021;29;46312;-81
2022/10/03 05:00:22;;;;;;;;;20.75;16.25;;;;;15.08;71.18;101924.69;4878946;29;45646;-80
2022/10/03 05:03:21;;;;;;;;;15.50;12.75;;;;;15.03;70.98;101926.81;4896589;29;45718;-79
2022/10/03 05:05:51;;;;;;;;;13.50;11.00;;;;;15.02;71.39;101926.91;4870911;29;45856;-79
2022/10/03 05:08:40;;;;;;;;;11.00;11.00;;;;;14.95;70.99;101926.47;4895891;29;45983;-79
2022/10/03 05:11:23;;;;;;;;;9.25;8.50;;;;;14.97;71.05;101926.38;4896123;29;45879;-79
2022/10/03 05:14:16;;;;;;;;;14.25;12.00;;;;;14.93;71.01;101931.03;4896298;29;45636;-79
2022/10/03 05:16:48;;;;;;;;;12.00;10.75;;;;;14.89;71.24;101926.91;4896190;29;45609;-81
2022/10/03 05:19:40;;;;;;;;;15.50;11.00;;;;;14.88;71.34;101930.50;4895654;29;46258;-79
2022/10/03 05:22:12;;;;;;;;;12.75;12.75;;;;;14.86;70.99;101926.25;4899614;29;45696;-78
2022/10/03 05:24:46;;;;;;;;;17.75;15.25;;;;;14.84;71.10;101929.03;4899778;29;45764;-79
2022/10/03 05:30:55;;;;;;;;;16.25;13.25;;;;;14.79;71.19;101933.75;4899106;29;45963;-79
2022/10/03 05:33:38;;;;;;;;;19.25;16.75;;;;;14.79;71.28;101931.09;4899247;29;45884;-79
2022/10/03 05:36:22;;;;;;;;;18.75;15.00;;;;;14.79;71.21;101936.38;4882172;29;45956;-79
2022/10/03 05:39:00;;;;;;;;;16.00;14.25;;;;;14.80;71.26;101935.44;4898624;29;46957;-78
2022/10/03 05:41:36;;;;;;;;;12.25;11.75;;;;;14.76;71.13;101931.31;4899240;29;46053;-79
2022/10/03 05:47:44;;;;;;;;;14.75;14.00;;;;;14.80;70.91;101938.06;4899733;29;45577;-79
2022/10/03 05:50:46;;;;;;;;;22.50;18.00;;;;;14.83;71.13;101937.03;4899946;29;45788;-80
2022/10/03 05:53:20;;;;;;;;;21.50;15.75;;;;;14.84;71.10;101944.84;4898957;29;46186;-80
2022/10/03 05:56:14;;;;;;;;;18.50;15.00;;;;;14.84;71.11;101941.38;4899515;29;45799;-80
2022/10/03 05:59:16;;;;;;;;;19.25;16.00;;;;;14.81;71.32;101933.66;4898664;29;45723;-79
2022/10/03 06:01:58;;;;;;;;;21.75;15.75;;;;;14.81;71.36;101934.50;4893763;29;45813;-79
2022/10/03 06:04:52;;;;;;;;;19.25;16.50;;;;;14.81;71.24;101931.00;4898358;29;46016;-78
2022/10/03 06:07:22;;;;;;;;;15.25;12.75;;;;;14.79;71.37;101923.19;4898763;29;45789;-80
2022/10/03 06:10:32;;;;;;;;;15.75;14.00;;;;;14.77;71.25;101917.19;4897827;29;45710;-78
2022/10/03 06:16:56;;;;;;;;;16.00;15.00;;;;;14.69;71.22;101917.69;4819979;29;45983;-79
2022/10/03 06:19:52;;;;;;;;;10.75;8.50;;;;;14.68;71.21;101925.72;4820331;29;46216;-73
2022/10/03 06:22:49;;;;;;;;;25.00;19.75;;;;;14.65;70.84;101939.97;4805594;29;45876;-73
2022/10/03 06:25:48;;;;;;;;;20.75;18.50;;;;;14.62;70.59;101941.97;4820255;29;45692;-72
2022/10/03 06:28:19;;;;;;;;;15.75;15.25;;;;;14.56;70.41;101943.22;4820623;29;45706;-71
2022/10/03 06:31:20;;;;;;;;;17.50;16.25;;;;;14.50;70.73;101945.41;4821073;29;45864;-75
2022/10/03 06:34:11;;;;;;;;;20.25;16.75;;;;;14.46;70.34;101950.06;4820993;29;45799;-74
2022/10/03 06:36:51;;;;;;;;;13.25;12.25;;;;;14.46;70.56;101947.41;4820976;29;47809;-74
2022/10/03 06:39:17;;;;;;;;;13.25;13.00;;;;;14.45;70.11;101939.59;4820717;29;46413;-74
2022/10/03 06:42:09;;;;;;;;;15.00;13.00;;;;;14.43;69.77;101946.75;4820517;29;46130;-74
2022/10/03 06:44:40;;;;;;;;;17.50;13.50;;;;;14.41;70.11;101953.94;4820740;29;45871;-74
2022/10/03 06:47:25;;;;;;;;;14.50;12.50;;;;;14.38;70.17;101951.47;4821188;29;46396;-73
2022/10/03 06:50:15;;;;;;;;;14.50;13.25;;;;;14.38;69.92;101962.88;4862812;29;47420;-73
2022/10/03 06:53:17;;;;;;;;;10.00;9.25;;;;;14.39;69.82;101956.66;4895658;29;45600;-74
2022/10/03 06:55:51;;;;;;;;;13.25;12.75;;;;;14.41;69.84;101960.06;4897920;29;45664;-74
2022/10/03 07:01:58;;;;;;;;;11.50;11.00;;;;;14.44;69.80;101964.28;4897851;29;46190;-74
2022/10/03 07:05:07;;;;;;;;;17.00;11.00;;;;;14.44;69.79;101964.28;4897558;29;45693;-74
2022/10/03 07:08:18;;;;;;;;;22.25;18.25;;;;;14.44;69.85;101966.91;4898190;29;45494;-74
2022/10/03 07:11:01;;;;;;;;;14.75;12.75;;;;;14.44;69.62;101966.91;4897638;29;46682;-74
2022/10/03 07:13:49;;;;;;;;;18.25;16.75;;;;;14.44;69.56;101972.19;4897453;29;46310;-73
2022/10/03 07:16:43;;;;;;;;;19.25;15.25;;;;;14.45;69.66;101979.16;4896657;29;45715;-73
2022/10/03 07:19:46;;;;;;;;;16.25;14.00;;;;;14.45;69.70;101972.09;4897687;29;45618;-73
2022/10/03 07:22:41;;;;;;;;;20.50;18.25;;;;;14.46;69.72;101972.94;4897397;29;45730;-74
2022/10/03 07:25:24;;;;;;;;;28.50;18.75;;;;;14.45;69.56;101977.34;4897617;29;46110;-73
2022/10/03 07:28:02;;;;;;;;;17.75;13.25;;;;;14.46;69.31;101976.41;4897284;29;45789;-74
2022/10/03 07:31:10;;;;;;;;;34.25;29.00;;;;;14.47;69.46;101974.59;4897467;29;45743;-74
2022/10/03 07:34:35;;;;;;;;;12.75;12.25;;;;;14.46;69.59;101981.69;4810337;29;45750;-74
2022/10/03 07:40:21;;;;;;;;;18.00;14.00;;;;;14.48;69.80;101992.13;4747508;29;45926;-74
2022/10/03 07:46:16;;;;;;;;;11.50;10.00;;;;;14.49;69.61;101988.53;4747856;29;45903;-74
2022/10/03 07:49:11;;;;;;;;;16.25;14.50;;;;;14.52;69.62;101986.53;4747657;29;46116;-74
2022/10/03 07:52:01;;;;;;;;;12.75;10.75;;;;;14.55;69.60;101989.00;4747356;29;45722;-74
2022/10/03 07:54:37;;;;;;;;;13.50;12.75;;;;;14.56;69.71;101990.69;4747972;29;45649;-74
2022/10/03 07:57:27;;;;;;;;;17.75;13.00;;;;;14.56;69.34;101988.06;4747520;29;47359;-74
2022/10/03 08:00:41;;;;;;;;;17.75;14.50;;;;;14.58;69.91;101990.56;4747214;29;46015;-74
2022/10/03 08:03:21;;;;;;;;;12.00;10.25;;;;;14.58;69.77;101996.69;4762609;29;45926;-75
2022/10/03 08:06:16;;;;;;;;;11.25;10.00;;;;;14.59;69.32;102000.19;4747579;29;45650;-74
2022/10/03 08:09:15;;;;;;;;;37.50;31.00;;;;;14.61;69.34;102000.94;4806262;29;47537;-79
2022/10/03 08:12:02;;;;;;;;;19.75;16.50;;;;;14.65;69.48;102002.41;4879866;29;47286;-78
2022/10/03 08:18:02;;;;;;;;;15.50;13.50;;;;;14.77;69.52;102011.31;4897110;29;45661;-78
2022/10/03 08:20:57;;;;;;;;;14.25;14.00;;;;;14.82;69.60;102003.94;4899397;29;45514;-77
2022/10/03 08:24:00;;;;;;;;;20.75;14.25;;;;;14.87;69.20;102007.13;4899385;29;45626;-77
2022/10/03 08:26:29;;;;;;;;;18.00;13.50;;;;;14.91;69.26;101998.88;4899244;29;45734;-78
2022/10/03 08:29:21;;;;;;;;;20.50;17.00;;;;;14.98;69.25;102001.97;4896669;29;45939;-78
2022/10/03 08:32:04;;;;;;;;;17.50;14.25;;;;;15.03;69.17;102006.00;4896733;29;45856;-78
2022/10/03 08:34:53;;;;;;;;;17.25;14.75;;;;;15.07;68.71;101999.56;4896668;29;46089;-78
2022/10/03 08:37:22;;;;;;;;;14.50;13.00;;;;;15.09;68.37;102002.94;4896883;29;45592;-79
2022/10/03 08:40:24;;;;;;;;;18.25;15.50;;;;;15.13;68.79;101998.28;4896919;29;45839;-79
2022/10/03 08:43:15;;;;;;;;;19.50;14.75;;;;;15.19;68.51;101999.66;4879725;29;47686;-78
2022/10/03 08:46:16;;;;;;;;;19.00;17.00;;;;;15.24;68.39;102000.19;4896419;29;46082;-79
2022/10/03 08:49:02;;;;;;;;;14.00;13.00;;;;;15.27;68.21;102005.28;4819469;29;45654;-78
2022/10/03 08:52:02;;;;;;;;;16.75;13.50;;;;;15.28;68.02;101996.41;4820369;29;45785;-79
2022/10/03 08:54:40;;;;;;;;;12.75;11.00;;;;;15.26;67.88;101993.88;4821736;29;46993;-77
2022/10/03 08:57:36;;;;;;;;;22.75;19.75;;;;;15.28;67.71;101994.59;4824235;29;46127;-77
2022/10/03 09:00:28;;;;;;;;;20.00;16.00;;;;;15.31;67.80;102004.13;4822747;29;45604;-78
2022/10/03 09:03:27;;;;;;;;;18.00;15.00;;;;;15.34;67.79;101995.97;4823111;29;45753;-78
2022/10/03 09:06:01;;;;;;;;;14.00;14.00;;;;;15.36;67.73;101992.28;4823152;29;46803;-76
2022/10/03 09:09:20;;;;;;;;;22.50;20.25;;;;;15.39;67.64;101999.13;4822414;29;45749;-76
2022/10/03 09:12:16;;;;;;;;;18.00;16.50;;;;;15.41;67.56;102002.53;4768400;29;46065;-77
2022/10/03 09:18:15;;;;;;;;;22.75;21.25;;;;;15.44;67.41;102016.38;4822160;29;45664;-77
2022/10/03 09:20:59;;;;;;;;;24.25;22.00;;;;;15.48;67.56;102030.22;4823824;29;46262;-77
2022/10/03 09:23:49;;;;;;;;;20.00;19.25;;;;;15.51;67.21;102033.53;4883721;29;46103;-76
2022/10/03 09:27:04;;;;;;;;;24.25;21.00;;;;;15.53;67.31;102034.28;4903030;29;45557;-77
2022/10/03 09:33:13;;;;;;;;;25.50;22.75;;;;;15.60;67.22;102031.22;4825323;29;45738;-77
2022/10/03 09:35:47;;;;;;;;;26.50;21.00;;;;;15.61;67.17;102039.00;4825123;29;45855;-77
2022/10/03 09:38:30;;;;;;;;;26.25;24.00;;;;;15.66;67.05;102049.25;4821865;29;45983;-77
2022/10/03 09:41:32;;;;;;;;;25.50;22.50;;;;;15.71;67.27;102042.69;4824834;29;45757;-77
2022/10/03 09:44:29;;;;;;;;;33.00;24.25;;;;;15.75;66.81;102044.19;4825123;29;45685;-79
2022/10/03 09:50:50;;;;;;;;;24.00;22.00;;;;;15.86;66.84;102035.53;4822929;29;45798;-78
2022/10/03 09:53:47;;;;;;;;;23.75;21.00;;;;;15.88;66.56;102039.72;4822025;29;46364;-79
2022/10/03 09:56:24;;;;;;;;;23.50;20.00;;;;;15.90;66.72;102035.19;4822584;29;46255;-80
2022/10/03 09:59:10;;;;;;;;;26.25;23.50;;;;;15.92;66.67;102030.63;4806747;29;45830;-79
2022/10/03 10:01:54;;;;;;;;;21.75;21.25;;;;;15.94;66.65;102030.53;4824153;29;45795;-79
2022/10/03 10:04:57;;;;;;;;;25.50;22.75;;;;;15.98;66.50;102018.75;4835120;29;45799;-79
2022/10/03 10:08:03;;;;;;;;;22.75;20.75;;;;;16.03;66.42;102015.81;4900493;29;46565;-77
2022/10/03 10:10:50;;;;;;;;;24.25;20.75;;;;;16.05;66.03;102013.91;4899369;29;45874;-79
2022/10/03 10:13:49;;;;;;;;;28.25;24.25;;;;;16.07;66.09;102009.34;4899553;29;45574;-78
2022/10/03 10:20:02;;;;;;;;;30.50;26.25;;;;;16.11;66.01;102013.47;4899065;29;45638;-78
2022/10/03 10:23:03;;;;;;;;;25.75;23.25;;;;;16.09;65.73;102010.91;4899534;29;45739;-78
2022/10/03 10:25:41;;;;;;;;;28.50;25.00;;;;;16.10;65.76;102017.91;4899134;29;45685;-77
2022/10/03 10:28:31;;;;;;;;;29.50;28.00;;;;;16.11;65.80;102016.94;4898064;29;47040;-80
2022/10/03 10:31:33;;;;;;;;;27.00;22.50;;;;;16.13;65.49;102009.75;4898179;29;46091;-77
2022/10/03 10:34:14;;;;;;;;;24.75;22.50;;;;;16.15;65.46;102015.78;4897946;29;45969;-76
2022/10/03 10:36:54;;;;;;;;;27.50;24.75;;;;;16.19;65.74;102027.84;4898382;29;45762;-77
2022/10/03 10:39:55;;;;;;;;;27.25;23.25;;;;;16.24;65.11;102020.41;4897519;29;45561;-75
2022/10/03 10:42:30;;;;;;;;;26.25;22.75;;;;;16.28;65.33;102011.28;4897890;29;46112;-78
2022/10/03 10:48:44;;;;;;;;;27.25;23.75;;;;;16.38;65.39;102003.53;4897669;29;45654;-75
2022/10/03 10:51:12;;;;;;;;;21.00;20.00;;;;;16.41;65.06;101997.19;4897127;29;45675;-76
2022/10/03 10:54:22;;;;;;;;;22.75;21.75;;;;;16.45;65.24;101999.50;4897529;29;46035;-76
2022/10/03 10:57:17;;;;;;;;;29.25;27.25;;;;;16.49;65.02;101992.16;4897870;29;45658;-78
2022/10/03 10:59:59;;;;;;;;;25.25;19.25;;;;;16.50;65.09;102000.00;4870483;29;45609;-75
2022/10/03 11:02:58;;;;;;;;;24.50;20.00;;;;;16.54;64.22;102004.09;4898015;29;46553;-73
2022/10/03 11:06:11;;;;;;;;;21.75;19.00;;;;;16.56;64.26;102012.78;4898139;29;47073;-73
2022/10/03 11:09:03;;;;;;;;;24.00;20.25;;;;;16.56;64.13;102007.47;4872817;29;46568;-73
2022/10/03 11:11:47;;;;;;;;;19.00;17.25;;;;;16.57;63.83;102003.84;4898458;29;45602;-73
2022/10/03 11:14:50;;;;;;;;;16.50;16.00;;;;;16.57;64.13;102009.16;4898484;29;46307;-75
2022/10/03 11:20:52;;;;;;;;;22.00;20.75;;;;;16.59;63.56;102009.91;4898262;29;45717;-72
2022/10/03 11:23:17;;;;;;;;;25.00;20.75;;;;;16.60;63.45;102008.97;4898597;29;45820;-74
2022/10/03 11:25:52;;;;;;;;;17.67;17.00;;;;;16.63;63.50;102006.09;4897940;29;46582;-72
2022/10/03 11:28:43;;;;;;;;;21.25;20.00;;;;;16.65;63.29;102006.81;4897650;29;45733;-73
2022/10/03 11:31:39;;;;;;;;;22.75;21.50;;;;;16.67;63.31;102007.56;4897749;29;45568;-74
2022/10/03 11:34:42;;;;;;;;;20.25;18.75;;;;;16.73;63.61;102004.44;4881150;29;45574;-73
2022/10/03 11:37:29;;;;;;;;;20.00;18.00;;;;;16.78;63.32;101998.81;4897983;29;45566;-74
2022/10/03 11:40:27;;;;;;;;;19.50;17.00;;;;;16.82;63.34;101994.13;4897723;29;46405;-73
2022/10/03 11:42:55;;;;;;;;;21.25;20.50;;;;;16.84;63.09;101989.56;4898056;29;45884;-73
2022/10/03 11:48:58;;;;;;;;;20.25;19.50;;;;;16.89;62.92;101985.63;4897589;29;46229;-73
2022/10/03 11:51:38;;;;;;;;;19.75;17.50;;;;;16.93;63.10;101989.72;4897529;29;46196;-74
2022/10/03 11:54:19;;;;;;;;;22.50;19.75;;;;;16.93;62.49;101978.28;4897866;29;45598;-73
2022/10/03 11:56:53;;;;;;;;;20.75;20.00;;;;;16.96;62.89;101984.19;4881867;29;45556;-73
2022/10/03 11:59:33;;;;;;;;;19.75;18.00;;;;;17.02;62.66;101996.09;4879817;29;45609;-73
2022/10/03 12:05:26;;;;;;;;;21.75;19.50;;;;;17.06;62.35;101979.03;4897554;29;45532;-73
2022/10/03 12:11:10;;;;;;;;;18.50;17.75;;;;;17.14;62.02;101985.44;4897637;29;46227;-74
2022/10/03 12:13:57;;;;;;;;;17.50;17.50;;;;;17.16;61.77;101986.19;4897661;29;46027;-73
2022/10/03 12:16:49;;;;;;;;;21.75;20.00;;;;;17.18;61.67;101992.19;4897810;29;45457;-72
2022/10/03 12:19:29;;;;;;;;;18.50;17.25;;;;;17.20;61.75;101981.47;4897574;29;45655;-73
2022/10/03 12:22:05;;;;;;;;;20.25;19.25;;;;;17.22;61.51;101973.41;4897540;29;46939;-73
2022/10/03 12:24:35;;;;;;;;;21.25;19.00;;;;;17.24;62.03;101964.38;4897921;29;45568;-73
2022/10/03 12:27:49;;;;;;;;;18.75;16.50;;;;;17.29;61.83;101964.00;4897619;29;45542;-74
2022/10/03 12:30:18;;;;;;;;;21.50;16.75;;;;;17.35;61.65;101966.19;4896854;29;45740;-74
2022/10/03 12:32:59;;;;;;;;;21.25;20.00;;;;;17.39;61.25;101957.03;4880565;29;48881;-74
2022/10/03 12:35:53;;;;;;;;;22.00;18.25;;;;;17.42;61.29;101957.66;4897585;29;45975;-74
2022/10/03 12:38:32;;;;;;;;;21.00;18.50;;;;;17.47;61.58;101955.50;4820174;29;45649;-73
2022/10/03 12:41:19;;;;;;;;;43.00;33.25;;;;;17.52;61.60;101958.63;4820536;29;45923;-75
2022/10/03 12:44:03;;;;;;;;;20.00;18.25;;;;;17.58;61.56;101957.28;4820588;29;45646;-74
2022/10/03 12:50:15;;;;;;;;;20.00;17.75;;;;;17.66;60.76;101939.00;4820644;29;45599;-74
2022/10/03 12:53:01;;;;;;;;;20.25;15.50;;;;;17.67;60.79;101938.03;4820829;29;45705;-74
2022/10/03 12:55:37;;;;;;;;;17.75;17.50;;;;;17.68;60.32;101938.88;4820764;29;46591;-73
2022/10/03 12:58:21;;;;;;;;;20.00;18.00;;;;;17.68;60.77;101936.22;4820028;29;46380;-74
2022/10/03 13:04:24;;;;;;;;;19.50;18.00;;;;;17.64;59.83;101929.50;4820688;29;45738;-75
2022/10/03 13:07:25;;;;;;;;;19.25;17.00;;;;;17.63;60.27;101926.00;4820510;29;45643;-76
2022/10/03 13:10:12;;;;;;;;;19.75;18.50;;;;;17.64;60.63;101926.84;4765605;29;46122;-73
2022/10/03 13:12:42;;;;;;;;;34.25;30.50;;;;;17.63;60.28;101923.34;4765964;29;45684;-74
2022/10/03 13:15:43;;;;;;;;;23.00;20.25;;;;;17.66;60.68;101938.16;4789231;29;45795;-74
2022/10/03 13:22:07;;;;;;;;;17.75;16.00;;;;;17.69;60.17;101932.63;4819764;29;45773;-74
2022/10/03 13:24:43;;;;;;;;;26.50;24.00;;;;;17.68;60.17;101933.56;4765611;29;45917;-73
2022/10/03 13:27:31;;;;;;;;;15.25;13.00;;;;;17.69;60.29;101927.31;4766016;29;45851;-73
2022/10/03 13:30:05;;;;;;;;;19.50;16.50;;;;;17.71;60.54;101925.38;4765174;29;46824;-72
2022/10/03 13:32:36;;;;;;;;;20.00;18.25;;;;;17.73;60.44;101926.94;4765585;29;46057;-74
2022/10/03 13:38:22;;;;;;;;;20.00;16.25;;;;;17.77;59.52;101927.53;4765521;29;45619;-73
2022/10/03 13:40:51;;;;;;;;;19.25;17.50;;;;;17.76;59.78;101917.91;4711742;30;47806;-74
2022/10/03 13:43:24;;;;;;;;;12.50;12.25;;;;;17.77;60.19;101919.56;4723937;29;46672;-73
2022/10/03 13:45:55;;;;;;;;;15.50;14.00;;;;;17.79;59.69;101912.34;4750425;29;45846;-73
2022/10/03 13:48:26;;;;;;;;;17.75;15.00;;;;;17.80;59.76;101909.59;4750351;29;45614;-74
2022/10/03 13:51:12;;;;;;;;;18.25;16.50;;;;;17.83;59.84;101908.47;4750097;29;45657;-73
2022/10/03 13:53:49;;;;;;;;;18.50;17.75;;;;;17.85;58.98;101904.75;4750697;29;45982;-74
2022/10/03 13:56:39;;;;;;;;;16.25;15.00;;;;;17.83;58.84;101904.03;4765273;29;45631;-73
2022/10/03 13:59:51;;;;;;;;;31.50;28.00;;;;;17.83;58.91;101903.19;4750094;29;45799;-73
2022/10/03 14:05:47;;;;;;;;;12.75;12.00;;;;;17.83;58.88;101887.28;4804329;29;46116;-74
2022/10/03 14:08:46;;;;;;;;;14.25;14.25;;;;;17.83;58.52;101874.00;4803989;29;45784;-74
2022/10/03 14:11:23;;;;;;;;;16.75;15.75;;;;;17.82;58.27;101873.16;4804415;29;45648;-75
2022/10/03 14:14:23;;;;;;;;;18.50;16.00;;;;;17.79;58.29;101870.78;4803726;29;46556;-74
2022/10/03 14:20:28;;;;;;;;;18.25;18.00;;;;;17.76;58.16;101864.91;4899278;29;45600;-76
2022/10/03 14:23:12;;;;;;;;;17.50;15.50;;;;;17.74;58.50;101864.16;4899470;29;45708;-74
2022/10/03 14:25:38;;;;;;;;;15.00;13.25;;;;;17.73;57.90;101860.66;4899279;29;46996;-74
2022/10/03 14:28:16;;;;;;;;;17.00;15.50;;;;;17.75;58.15;101855.25;4881695;29;47729;-75
2022/10/03 14:30:57;;;;;;;;;16.25;13.50;;;;;17.77;58.49;101856.78;4898953;29;45676;-74
2022/10/03 14:37:17;;;;;;;;;12.00;11.00;;;;;17.86;58.07;101852.56;4898569;29;45964;-74
2022/10/03 14:39:51;;;;;;;;;11.00;11.00;;;;;17.89;57.93;101841.69;4898569;29;45590;-73